sensor_id;sensor_type;location;lat;lon;timestamp;pressure;altitude;pressure_sealevel;temperature;humidity
76114;BME280;64845;53.086;5.834;2023-05-28T00:01:54;102337.13;;;12.53;68.40
76114;BME280;64845;53.086;5.834;2023-05-28T00:04:20;102335.44;;;12.49;68.53
76114;BME280;64845;53.086;5.834;2023-05-28T00:06:46;102335.56;;;12.44;68.20
76114;BME280;64845;53.086;5.834;2023-05-28T00:09:14;102332.06;;;12.41;68.45
76114;BME280;64845;53.086;5.834;2023-05-28T00:11:39;102335.69;;;12.38;68.75
76114;BME280;64845;53.086;5.834;2023-05-28T00:14:05;102341.16;;;12.33;68.64
76114;BME280;64845;53.086;5.834;2023-05-28T00:16:30;102336.81;;;12.26;68.62
76114;BME280;64845;53.086;5.834;2023-05-28T00:18:56;102337.84;;;12.22;68.59
76114;BME280;64845;53.086;5.834;2023-05-28T00:21:21;102342.41;;;12.17;68.77
76114;BME280;64845;53.086;5.834;2023-05-28T00:23:46;102327.34;;;12.11;68.81
76114;BME280;64845;53.086;5.834;2023-05-28T00:26:12;102327.38;;;12.09;68.95
76114;BME280;64845;53.086;5.834;2023-05-28T00:28:37;102331.88;;;12.07;68.97
76114;BME280;64845;53.086;5.834;2023-05-28T00:31:02;102340.00;;;12.04;69.02
76114;BME280;64845;53.086;5.834;2023-05-28T00:33:28;102331.13;;;12.01;69.15
76114;BME280;64845;53.086;5.834;2023-05-28T00:35:54;102329.38;;;11.98;69.15
76114;BME280;64845;53.086;5.834;2023-05-28T00:38:21;102323.16;;;11.96;69.19
76114;BME280;64845;53.086;5.834;2023-05-28T00:40:47;102316.03;;;11.95;69.29
76114;BME280;64845;53.086;5.834;2023-05-28T00:43:12;102322.31;;;11.96;69.60
76114;BME280;64845;53.086;5.834;2023-05-28T00:45:37;102314.28;;;11.96;69.65
76114;BME280;64845;53.086;5.834;2023-05-28T00:48:03;102308.91;;;11.96;69.63
76114;BME280;64845;53.086;5.834;2023-05-28T00:50:28;102308.94;;;11.94;69.75
76114;BME280;64845;53.086;5.834;2023-05-28T00:52:54;102306.28;;;11.92;69.66
76114;BME280;64845;53.086;5.834;2023-05-28T00:55:21;102305.41;;;11.92;69.71
76114;BME280;64845;53.086;5.834;2023-05-28T00:57:47;102300.94;;;11.92;69.70
76114;BME280;64845;53.086;5.834;2023-05-28T01:00:18;102304.50;;;11.93;69.77
76114;BME280;64845;53.086;5.834;2023-05-28T01:02:44;102302.78;;;11.89;69.97
76114;BME280;64845;53.086;5.834;2023-05-28T01:05:09;102301.94;;;11.87;69.96
76114;BME280;64845;53.086;5.834;2023-05-28T01:07:35;102300.22;;;11.84;70.00
76114;BME280;64845;53.086;5.834;2023-05-28T01:10:02;102310.13;;;11.79;69.95
76114;BME280;64845;53.086;5.834;2023-05-28T01:12:28;102303.09;;;11.73;70.11
76114;BME280;64845;53.086;5.834;2023-05-28T01:14:54;102316.59;;;11.69;70.21
76114;BME280;64845;53.086;5.834;2023-05-28T01:17:20;102318.50;;;11.62;70.19
76114;BME280;64845;53.086;5.834;2023-05-28T01:19:45;102315.91;;;11.57;70.38
76114;BME280;64845;53.086;5.834;2023-05-28T01:22:16;102314.22;;;11.53;70.49
76114;BME280;64845;53.086;5.834;2023-05-28T01:24:43;102309.81;;;11.49;70.49
76114;BME280;64845;53.086;5.834;2023-05-28T01:27:10;102310.78;;;11.45;70.66
76114;BME280;64845;53.086;5.834;2023-05-28T01:29:36;102304.56;;;11.44;70.40
76114;BME280;64845;53.086;5.834;2023-05-28T01:32:02;102301.91;;;11.44;70.52
76114;BME280;64845;53.086;5.834;2023-05-28T01:34:27;102309.03;;;11.44;70.49
76114;BME280;64845;53.086;5.834;2023-05-28T01:37:00;102309.00;;;11.45;70.72
76114;BME280;64845;53.086;5.834;2023-05-28T01:39:28;102305.44;;;11.46;70.37
76114;BME280;64845;53.086;5.834;2023-05-28T01:41:56;102295.59;;;11.47;70.76
76114;BME280;64845;53.086;5.834;2023-05-28T01:44:23;102300.91;;;11.50;70.65
76114;BME280;64845;53.086;5.834;2023-05-28T01:46:49;102300.84;;;11.52;71.04
76114;BME280;64845;53.086;5.834;2023-05-28T01:49:18;102300.84;;;11.53;71.07
76114;BME280;64845;53.086;5.834;2023-05-28T01:51:44;102302.56;;;11.56;71.11
76114;BME280;64845;53.086;5.834;2023-05-28T01:54:10;102303.41;;;11.58;71.07
76114;BME280;64845;53.086;5.834;2023-05-28T01:56:36;102293.63;;;11.57;70.91
76114;BME280;64845;53.086;5.834;2023-05-28T01:59:02;102298.06;;;11.58;70.92
76114;BME280;64845;53.086;5.834;2023-05-28T02:01:31;102290.00;;;11.59;71.05
76114;BME280;64845;53.086;5.834;2023-05-28T02:03:58;102287.31;;;11.61;71.17
76114;BME280;64845;53.086;5.834;2023-05-28T02:06:25;102286.41;;;11.62;71.15
76114;BME280;64845;53.086;5.834;2023-05-28T02:08:51;102282.81;;;11.63;71.21
76114;BME280;64845;53.086;5.834;2023-05-28T02:11:17;102291.69;;;11.63;71.22
76114;BME280;64845;53.086;5.834;2023-05-28T02:13:43;102297.06;;;11.63;71.34
76114;BME280;64845;53.086;5.834;2023-05-28T02:16:09;102297.97;;;11.64;71.17
76114;BME280;64845;53.086;5.834;2023-05-28T02:18:36;102314.91;;;11.63;71.22
76114;BME280;64845;53.086;5.834;2023-05-28T02:21:03;102303.38;;;11.61;71.42
76114;BME280;64845;53.086;5.834;2023-05-28T02:23:28;102303.38;;;11.61;71.53
76114;BME280;64845;53.086;5.834;2023-05-28T02:25:54;102298.00;;;11.61;71.53
76114;BME280;64845;53.086;5.834;2023-05-28T02:28:19;102295.34;;;11.61;71.58
76114;BME280;64845;53.086;5.834;2023-05-28T02:30:44;102291.75;;;11.62;71.65
76114;BME280;64845;53.086;5.834;2023-05-28T02:33:10;102295.34;;;11.61;71.63
76114;BME280;64845;53.086;5.834;2023-05-28T02:35:36;102299.78;;;11.62;71.60
76114;BME280;64845;53.086;5.834;2023-05-28T02:38:01;102288.22;;;11.60;71.61
76114;BME280;64845;53.086;5.834;2023-05-28T02:40:26;102290.00;;;11.59;71.82
76114;BME280;64845;53.086;5.834;2023-05-28T02:42:52;102290.91;;;11.58;71.76
76114;BME280;64845;53.086;5.834;2023-05-28T02:45:17;102298.97;;;11.57;71.82
76114;BME280;64845;53.086;5.834;2023-05-28T02:47:43;102288.28;;;11.57;71.89
76114;BME280;64845;53.086;5.834;2023-05-28T02:50:08;102304.31;;;11.57;71.80
76114;BME280;64845;53.086;5.834;2023-05-28T02:52:34;102307.91;;;11.56;71.85
76114;BME280;64845;53.086;5.834;2023-05-28T02:54:59;102314.22;;;11.53;71.89
76114;BME280;64845;53.086;5.834;2023-05-28T02:57:25;102316.88;;;11.53;71.89
76114;BME280;64845;53.086;5.834;2023-05-28T02:59:51;102301.75;;;11.52;72.16
76114;BME280;64845;53.086;5.834;2023-05-28T03:02:16;102311.56;;;11.52;72.12
76114;BME280;64845;53.086;5.834;2023-05-28T03:04:41;102299.06;;;11.52;72.18
76114;BME280;64845;53.086;5.834;2023-05-28T03:07:08;102301.75;;;11.52;72.19
76114;BME280;64845;53.086;5.834;2023-05-28T03:09:35;102295.50;;;11.53;72.20
76114;BME280;64845;53.086;5.834;2023-05-28T03:12:01;102294.63;;;11.51;72.32
76114;BME280;64845;53.086;5.834;2023-05-28T03:14:26;102301.75;;;11.52;72.05
76114;BME280;64845;53.086;5.834;2023-05-28T03:16:52;102293.78;;;11.49;72.27
76114;BME280;64845;53.086;5.834;2023-05-28T03:19:17;102294.69;;;11.48;72.28
76114;BME280;64845;53.086;5.834;2023-05-28T03:21:42;102297.38;;;11.48;72.41
76114;BME280;64845;53.086;5.834;2023-05-28T03:24:08;102289.38;;;11.46;72.34
76114;BME280;64845;53.086;5.834;2023-05-28T03:26:33;102287.63;;;11.45;71.98
76114;BME280;64845;53.086;5.834;2023-05-28T03:28:58;102293.84;;;11.46;72.45
76114;BME280;64845;53.086;5.834;2023-05-28T03:31:29;102294.72;;;11.46;72.54
76114;BME280;64845;53.086;5.834;2023-05-28T03:33:57;102293.78;;;11.47;72.56
76114;BME280;64845;53.086;5.834;2023-05-28T03:36:22;102296.47;;;11.47;72.62
76114;BME280;64845;53.086;5.834;2023-05-28T03:38:50;102298.28;;;11.47;72.62
76114;BME280;64845;53.086;5.834;2023-05-28T03:41:15;102301.81;;;11.47;72.55
76114;BME280;64845;53.086;5.834;2023-05-28T03:43:40;102307.16;;;11.47;72.60
76114;BME280;64845;53.086;5.834;2023-05-28T03:46:06;102307.16;;;11.47;72.59
76114;BME280;64845;53.086;5.834;2023-05-28T03:48:32;102309.81;;;11.49;72.71
76114;BME280;64845;53.086;5.834;2023-05-28T03:50:57;102306.25;;;11.48;72.68
76114;BME280;64845;53.086;5.834;2023-05-28T03:53:23;102307.16;;;11.47;72.49
76114;BME280;64845;53.086;5.834;2023-05-28T03:55:48;102307.22;;;11.46;72.57
76114;BME280;64845;53.086;5.834;2023-05-28T03:58:16;102309.00;;;11.45;72.62
76114;BME280;64845;53.086;5.834;2023-05-28T04:00:42;102300.09;;;11.45;72.68
76114;BME280;64845;53.086;5.834;2023-05-28T04:03:07;102304.56;;;11.44;72.65
76114;BME280;64845;53.086;5.834;2023-05-28T04:05:32;102306.34;;;11.45;72.64
76114;BME280;64845;53.086;5.834;2023-05-28T04:07:59;102306.34;;;11.44;72.62
76114;BME280;64845;53.086;5.834;2023-05-28T04:10:24;102301.84;;;11.46;72.79
76114;BME280;64845;53.086;5.834;2023-05-28T04:12:49;102306.34;;;11.45;72.94
76114;BME280;64845;53.086;5.834;2023-05-28T04:15:15;102304.53;;;11.46;72.82
76114;BME280;64845;53.086;5.834;2023-05-28T04:17:40;102307.16;;;11.47;72.87
76114;BME280;64845;53.086;5.834;2023-05-28T04:20:06;102305.44;;;11.45;72.88
76114;BME280;64845;53.086;5.834;2023-05-28T04:22:32;102300.09;;;11.45;72.93
76114;BME280;64845;53.086;5.834;2023-05-28T04:24:59;102294.72;;;11.46;73.01
76114;BME280;64845;53.086;5.834;2023-05-28T04:27:24;102294.69;;;11.48;72.93
76114;BME280;64845;53.086;5.834;2023-05-28T04:29:50;102298.22;;;11.50;72.91
76114;BME280;64845;53.086;5.834;2023-05-28T04:32:17;102301.75;;;11.52;72.88
76114;BME280;64845;53.086;5.834;2023-05-28T04:34:43;102309.72;;;11.54;72.93
76114;BME280;64845;53.086;5.834;2023-05-28T04:37:08;102312.41;;;11.55;73.12
76114;BME280;64845;53.086;5.834;2023-05-28T04:39:34;102307.88;;;11.57;72.79
76114;BME280;64845;53.086;5.834;2023-05-28T04:41:59;102299.84;;;11.57;73.07
76114;BME280;64845;53.086;5.834;2023-05-28T04:44:28;102300.69;;;11.59;73.07
76114;BME280;64845;53.086;5.834;2023-05-28T04:46:55;102295.34;;;11.61;73.06
76114;BME280;64845;53.086;5.834;2023-05-28T04:49:24;102296.19;;;11.63;72.93
76114;BME280;64845;53.086;5.834;2023-05-28T04:51:49;102309.56;;;11.63;73.17
76114;BME280;64845;53.086;5.834;2023-05-28T04:54:15;102314.91;;;11.63;72.81
76114;BME280;64845;53.086;5.834;2023-05-28T04:56:40;102306.91;;;11.63;72.95
76114;BME280;64845;53.086;5.834;2023-05-28T04:59:06;102313.97;;;11.66;73.10
76114;BME280;64845;53.086;5.834;2023-05-28T05:01:35;102322.03;;;11.64;73.15
76114;BME280;64845;53.086;5.834;2023-05-28T05:04:00;102316.78;;;11.58;73.01
76114;BME280;64845;53.086;5.834;2023-05-28T05:06:26;102324.00;;;11.53;73.10
76114;BME280;64845;53.086;5.834;2023-05-28T05:08:52;102322.25;;;11.53;73.01
76114;BME280;64845;53.086;5.834;2023-05-28T05:11:19;102321.34;;;11.53;72.97
76114;BME280;64845;53.086;5.834;2023-05-28T05:13:44;102319.53;;;11.55;73.04
76114;BME280;64845;53.086;5.834;2023-05-28T05:16:09;102322.19;;;11.56;73.01
76114;BME280;64845;53.086;5.834;2023-05-28T05:18:35;102324.75;;;11.61;73.11
76114;BME280;64845;53.086;5.834;2023-05-28T05:21:01;102326.50;;;11.63;72.97
76114;BME280;64845;53.086;5.834;2023-05-28T05:23:26;102319.28;;;11.67;72.91
76114;BME280;64845;53.086;5.834;2023-05-28T05:25:52;102333.44;;;11.72;73.01
76114;BME280;64845;53.086;5.834;2023-05-28T05:28:17;102324.50;;;11.75;73.03
76114;BME280;64845;53.086;5.834;2023-05-28T05:30:43;102324.41;;;11.79;72.99
76114;BME280;64845;53.086;5.834;2023-05-28T05:33:08;102324.34;;;11.83;72.66
76114;BME280;64845;53.086;5.834;2023-05-28T05:35:34;102334.94;;;11.87;73.01
76114;BME280;64845;53.086;5.834;2023-05-28T05:38:00;102337.53;;;11.92;73.03
76114;BME280;64845;53.086;5.834;2023-05-28T05:40:25;102337.47;;;11.95;72.88
76114;BME280;64845;53.086;5.834;2023-05-28T05:42:51;102341.88;;;11.99;72.99
76114;BME280;64845;53.086;5.834;2023-05-28T05:45:16;102352.47;;;12.05;73.01
76114;BME280;64845;53.086;5.834;2023-05-28T05:47:41;102339.88;;;12.09;73.05
76114;BME280;64845;53.086;5.834;2023-05-28T05:50:10;102347.81;;;12.14;73.07
76114;BME280;64845;53.086;5.834;2023-05-28T05:52:35;102344.13;;;12.19;72.96
76114;BME280;64845;53.086;5.834;2023-05-28T05:55:00;102349.41;;;12.24;72.87
76114;BME280;64845;53.086;5.834;2023-05-28T05:57:26;102354.59;;;12.32;73.09
76114;BME280;64845;53.086;5.834;2023-05-28T05:59:51;102354.47;;;12.36;72.94
76114;BME280;64845;53.086;5.834;2023-05-28T06:02:16;102350.81;;;12.41;73.06
76114;BME280;64845;53.086;5.834;2023-05-28T06:04:42;102352.47;;;12.46;73.12
76114;BME280;64845;53.086;5.834;2023-05-28T06:07:07;102351.44;;;12.52;73.21
76114;BME280;64845;53.086;5.834;2023-05-28T06:09:33;102347.78;;;12.56;73.08
76114;BME280;64845;53.086;5.834;2023-05-28T06:11:59;102343.22;;;12.61;73.08
76114;BME280;64845;53.086;5.834;2023-05-28T06:14:26;102358.25;;;12.67;73.20
76114;BME280;64845;53.086;5.834;2023-05-28T06:16:52;102348.31;;;12.72;73.24
76114;BME280;64845;53.086;5.834;2023-05-28T06:19:18;102351.78;;;12.76;73.22
76114;BME280;64845;53.086;5.834;2023-05-28T06:21:43;102352.53;;;12.82;73.09
76114;BME280;64845;53.086;5.834;2023-05-28T06:24:09;102347.03;;;12.89;73.25
76114;BME280;64845;53.086;5.834;2023-05-28T06:26:34;102358.44;;;12.97;73.32
76114;BME280;64845;53.086;5.834;2023-05-28T06:28:59;102350.25;;;13.03;73.32
76114;BME280;64845;53.086;5.834;2023-05-28T06:31:25;102352.72;;;13.11;73.32
76114;BME280;64845;53.086;5.834;2023-05-28T06:33:50;102349.00;;;13.17;73.41
76114;BME280;64845;53.086;5.834;2023-05-28T06:36:16;102350.66;;;13.22;73.11
76114;BME280;64845;53.086;5.834;2023-05-28T06:38:42;102356.75;;;13.29;73.16
76114;BME280;64845;53.086;5.834;2023-05-28T06:41:08;102359.31;;;13.34;73.18
76114;BME280;64845;53.086;5.834;2023-05-28T06:43:33;102350.19;;;13.39;72.98
76114;BME280;64845;53.086;5.834;2023-05-28T06:45:59;102353.63;;;13.46;72.89
76114;BME280;64845;53.086;5.834;2023-05-28T06:48:25;102356.09;;;13.54;72.84
76114;BME280;64845;53.086;5.834;2023-05-28T06:50:50;102363.97;;;13.62;72.65
76114;BME280;64845;53.086;5.834;2023-05-28T06:53:15;102359.25;;;13.70;72.67
76114;BME280;64845;53.086;5.834;2023-05-28T06:55:41;102362.66;;;13.77;72.46
76114;BME280;64845;53.086;5.834;2023-05-28T06:58:06;102358.94;;;13.82;72.30
76114;BME280;64845;53.086;5.834;2023-05-28T07:00:32;102362.34;;;13.87;72.05
76114;BME280;64845;53.086;5.834;2023-05-28T07:02:57;102364.88;;;13.94;71.85
76114;BME280;64845;53.086;5.834;2023-05-28T07:05:22;102370.06;;;14.00;71.72
76114;BME280;64845;53.086;5.834;2023-05-28T07:07:49;102372.63;;;14.04;71.42
76114;BME280;64845;53.086;5.834;2023-05-28T07:10:14;102369.75;;;14.11;71.38
76114;BME280;64845;53.086;5.834;2023-05-28T07:12:40;102374.00;;;14.18;70.85
76114;BME280;64845;53.086;5.834;2023-05-28T07:15:05;102372.06;;;14.23;70.51
76114;BME280;64845;53.086;5.834;2023-05-28T07:17:31;102380.84;;;14.30;70.24
76114;BME280;64845;53.086;5.834;2023-05-28T07:19:57;102378.91;;;14.35;69.79
76114;BME280;64845;53.086;5.834;2023-05-28T07:22:22;102379.66;;;14.40;69.59
76114;BME280;64845;53.086;5.834;2023-05-28T07:24:49;102391.94;;;14.47;69.40
76114;BME280;64845;53.086;5.834;2023-05-28T07:27:15;102392.63;;;14.54;69.13
76114;BME280;64845;53.086;5.834;2023-05-28T07:29:41;102387.91;;;14.62;68.89
76114;BME280;64845;53.086;5.834;2023-05-28T07:32:07;102397.59;;;14.70;68.47
76114;BME280;64845;53.086;5.834;2023-05-28T07:34:32;102395.53;;;14.78;68.40
76114;BME280;64845;53.086;5.834;2023-05-28T07:36:58;102383.69;;;14.84;67.71
76114;BME280;64845;53.086;5.834;2023-05-28T07:39:23;102388.00;;;14.89;67.22
76114;BME280;64845;53.086;5.834;2023-05-28T07:41:48;102386.03;;;14.94;66.60
76114;BME280;64845;53.086;5.834;2023-05-28T07:44:14;102377.69;;;15.02;66.33
76114;BME280;64845;53.086;5.834;2023-05-28T07:46:43;102393.63;;;15.10;65.85
76114;BME280;64845;53.086;5.834;2023-05-28T07:49:08;102389.84;;;15.16;65.92
76114;BME280;64845;53.086;5.834;2023-05-28T07:51:33;102396.75;;;15.23;65.16
76114;BME280;64845;53.086;5.834;2023-05-28T07:53:59;102392.88;;;15.32;65.24
76114;BME280;64845;53.086;5.834;2023-05-28T07:56:24;102385.41;;;15.40;64.99
76114;BME280;64845;53.086;5.834;2023-05-28T07:58:49;102387.84;;;15.48;64.83
76114;BME280;64845;53.086;5.834;2023-05-28T08:01:15;102383.09;;;15.56;64.38
76114;BME280;64845;53.086;5.834;2023-05-28T08:03:41;102382.97;;;15.59;63.88
76114;BME280;64845;53.086;5.834;2023-05-28T08:06:07;102380.97;;;15.64;63.15
76114;BME280;64845;53.086;5.834;2023-05-28T08:08:33;102378.00;;;15.72;62.86
76114;BME280;64845;53.086;5.834;2023-05-28T08:10:59;102378.63;;;15.80;62.43
76114;BME280;64845;53.086;5.834;2023-05-28T08:13:24;102389.22;;;15.85;62.16
76114;BME280;64845;53.086;5.834;2023-05-28T08:15:50;102389.97;;;15.90;61.27
76114;BME280;64845;53.086;5.834;2023-05-28T08:18:15;102384.38;;;15.96;61.31
76114;BME280;64845;53.086;5.834;2023-05-28T08:20:41;102382.31;;;16.03;61.01
76114;BME280;64845;53.086;5.834;2023-05-28T08:23:07;102390.97;;;16.11;60.65
76114;BME280;64845;53.086;5.834;2023-05-28T08:25:32;102383.44;;;16.21;60.42
76114;BME280;64845;53.086;5.834;2023-05-28T08:27:58;102384.03;;;16.29;59.77
76114;BME280;64845;53.086;5.834;2023-05-28T08:30:23;102384.59;;;16.38;59.61
76114;BME280;64845;53.086;5.834;2023-05-28T08:32:49;102379.69;;;16.49;59.52
76114;BME280;64845;53.086;5.834;2023-05-28T08:35:14;102380.31;;;16.56;58.89
76114;BME280;64845;53.086;5.834;2023-05-28T08:37:40;102385.47;;;16.62;58.02
76114;BME280;64845;53.086;5.834;2023-05-28T08:40:07;102383.41;;;16.69;57.14
76114;BME280;64845;53.086;5.834;2023-05-28T08:42:37;102382.97;;;16.80;57.28
76114;BME280;64845;53.086;5.834;2023-05-28T08:45:03;102377.97;;;16.92;57.53
76114;BME280;64845;53.086;5.834;2023-05-28T08:47:31;102383.75;;;17.05;57.37
76114;BME280;64845;53.086;5.834;2023-05-28T08:50:04;102379.78;;;17.14;57.39
76114;BME280;64845;53.086;5.834;2023-05-28T08:52:32;102383.03;;;17.22;57.19
76114;BME280;64845;53.086;5.834;2023-05-28T08:54:58;102382.69;;;17.30;56.91
76114;BME280;64845;53.086;5.834;2023-05-28T08:57:25;102381.41;;;17.39;56.69
76114;BME280;64845;53.086;5.834;2023-05-28T08:59:52;102382.78;;;17.49;56.51
76114;BME280;64845;53.086;5.834;2023-05-28T09:02:22;102372.53;;;17.58;56.39
76114;BME280;64845;53.086;5.834;2023-05-28T09:04:48;102369.44;;;17.67;55.94
76114;BME280;64845;53.086;5.834;2023-05-28T09:07:13;102379.97;;;17.73;55.60
76114;BME280;64845;53.086;5.834;2023-05-28T09:09:39;102371.50;;;17.81;55.63
76114;BME280;64845;53.086;5.834;2023-05-28T09:12:10;102375.63;;;17.90;55.62
76114;BME280;64845;53.086;5.834;2023-05-28T09:14:40;102374.28;;;18.00;55.49
76114;BME280;64845;53.086;5.834;2023-05-28T09:17:06;102379.47;;;18.05;55.52
76114;BME280;64845;53.086;5.834;2023-05-28T09:19:34;102367.44;;;18.12;55.27
76114;BME280;64845;53.086;5.834;2023-05-28T09:21:59;102365.44;;;18.16;54.42
76114;BME280;64845;53.086;5.834;2023-05-28T09:24:28;102366.13;;;18.21;54.28
76114;BME280;64845;53.086;5.834;2023-05-28T09:26:55;102370.28;;;18.28;53.99
76114;BME280;64845;53.086;5.834;2023-05-28T09:29:22;102375.56;;;18.31;53.46
76114;BME280;64845;53.086;5.834;2023-05-28T09:31:59;102365.38;;;18.36;53.42
76114;BME280;64845;53.086;5.834;2023-05-28T09:34:28;102360.50;;;18.45;53.19
76114;BME280;64845;53.086;5.834;2023-05-28T09:37:04;102371.84;;;18.53;52.98
76114;BME280;64845;53.086;5.834;2023-05-28T09:39:31;102373.38;;;18.58;52.85
76114;BME280;64845;53.086;5.834;2023-05-28T09:42:01;102375.69;;;18.66;52.65
76114;BME280;64845;53.086;5.834;2023-05-28T09:44:30;102371.72;;;18.73;52.12
76114;BME280;64845;53.086;5.834;2023-05-28T09:46:57;102376.84;;;18.80;51.84
76114;BME280;64845;53.086;5.834;2023-05-28T09:49:22;102371.13;;;18.86;51.56
76114;BME280;64845;53.086;5.834;2023-05-28T09:51:51;102379.72;;;18.94;51.53
76114;BME280;64845;53.086;5.834;2023-05-28T09:54:17;102370.38;;;19.01;51.36
76114;BME280;64845;53.086;5.834;2023-05-28T09:56:46;102377.16;;;19.10;51.21
76114;BME280;64845;53.086;5.834;2023-05-28T09:59:13;102366.91;;;19.17;51.15
76114;BME280;64845;53.086;5.834;2023-05-28T10:01:47;102362.84;;;19.26;51.06
76114;BME280;64845;53.086;5.834;2023-05-28T10:04:21;102367.94;;;19.32;50.50
76114;BME280;64845;53.086;5.834;2023-05-28T10:06:49;102365.78;;;19.39;50.37
76114;BME280;64845;53.086;5.834;2023-05-28T10:09:17;102355.44;;;19.47;49.84
76114;BME280;64845;53.086;5.834;2023-05-28T10:11:49;102360.63;;;19.52;49.37
76114;BME280;64845;53.086;5.834;2023-05-28T10:14:16;102362.91;;;19.59;49.06
76114;BME280;64845;53.086;5.834;2023-05-28T10:16:43;102365.47;;;19.62;48.40
76114;BME280;64845;53.086;5.834;2023-05-28T10:19:09;102369.69;;;19.68;47.95
76114;BME280;64845;53.086;5.834;2023-05-28T10:21:35;102370.16;;;19.76;47.86
76114;BME280;64845;53.086;5.834;2023-05-28T10:24:02;102365.28;;;19.83;47.78
76114;BME280;64845;53.086;5.834;2023-05-28T10:26:28;102369.59;;;19.87;47.59
76114;BME280;64845;53.086;5.834;2023-05-28T10:28:54;102367.44;;;19.94;47.35
76114;BME280;64845;53.086;5.834;2023-05-28T10:31:21;102370.59;;;20.02;47.35
76114;BME280;64845;53.086;5.834;2023-05-28T10:33:47;102367.66;;;20.07;47.22
76114;BME280;64845;53.086;5.834;2023-05-28T10:36:13;102370.09;;;20.12;47.04
76114;BME280;64845;53.086;5.834;2023-05-28T10:38:43;102364.78;;;20.10;46.20
76114;BME280;64845;53.086;5.834;2023-05-28T10:41:09;102373.66;;;20.12;45.89
76114;BME280;64845;53.086;5.834;2023-05-28T10:46:08;102373.00;;;20.25;45.93
76114;BME280;64845;53.086;5.834;2023-05-28T10:48:40;102364.78;;;20.26;45.95
76114;BME280;64845;53.086;5.834;2023-05-28T10:51:06;102374.34;;;20.33;45.96
76114;BME280;64845;53.086;5.834;2023-05-28T10:53:31;102370.50;;;20.37;46.18
76114;BME280;64845;53.086;5.834;2023-05-28T10:55:57;102374.06;;;20.38;45.57
76114;BME280;64845;53.086;5.834;2023-05-28T10:58:33;102366.88;;;20.37;45.36
76114;BME280;64845;53.086;5.834;2023-05-28T11:01:19;102366.72;;;20.40;45.78
76114;BME280;64845;53.086;5.834;2023-05-28T11:03:52;102371.88;;;20.45;45.86
76114;BME280;64845;53.086;5.834;2023-05-28T11:06:18;102372.59;;;20.48;45.57
76114;BME280;64845;53.086;5.834;2023-05-28T11:08:46;102366.91;;;20.53;45.92
76114;BME280;64845;53.086;5.834;2023-05-28T11:11:12;102373.91;;;20.57;45.54
76114;BME280;64845;53.086;5.834;2023-05-28T11:13:42;102371.09;;;20.59;45.62
76114;BME280;64845;53.086;5.834;2023-05-28T11:16:11;102379.13;;;20.60;45.57
76114;BME280;64845;53.086;5.834;2023-05-28T11:18:37;102388.28;;;20.59;45.56
76114;BME280;64845;53.086;5.834;2023-05-28T11:21:07;102382.41;;;20.51;45.27
76114;BME280;64845;53.086;5.834;2023-05-28T11:23:35;102387.72;;;20.52;45.51
76114;BME280;64845;53.086;5.834;2023-05-28T11:26:05;102381.00;;;20.60;45.60
76114;BME280;64845;53.086;5.834;2023-05-28T11:28:31;102380.66;;;20.66;45.67
76114;BME280;64845;53.086;5.834;2023-05-28T11:30:58;102386.78;;;20.69;45.82
76114;BME280;64845;53.086;5.834;2023-05-28T11:33:27;102388.34;;;20.74;45.72
76114;BME280;64845;53.086;5.834;2023-05-28T11:35:58;102390.97;;;20.75;45.55
76114;BME280;64845;53.086;5.834;2023-05-28T11:38:24;102389.38;;;20.71;45.37
76114;BME280;64845;53.086;5.834;2023-05-28T11:40:49;102383.19;;;20.69;45.45
76114;BME280;64845;53.086;5.834;2023-05-28T11:43:15;102377.66;;;20.71;45.34
76114;BME280;64845;53.086;5.834;2023-05-28T11:45:40;102387.72;;;20.68;45.75
76114;BME280;64845;53.086;5.834;2023-05-28T11:48:12;102377.56;;;20.72;45.89
76114;BME280;64845;53.086;5.834;2023-05-28T11:50:38;102387.25;;;20.78;46.21
76114;BME280;64845;53.086;5.834;2023-05-28T11:53:03;102382.41;;;20.83;46.36
76114;BME280;64845;53.086;5.834;2023-05-28T11:55:29;102376.00;;;20.84;46.56
76114;BME280;64845;53.086;5.834;2023-05-28T11:57:55;102383.97;;;20.87;46.99
76114;BME280;64845;53.086;5.834;2023-05-28T12:00:29;102387.25;;;20.78;46.88
76114;BME280;64845;53.086;5.834;2023-05-28T12:02:57;102380.41;;;20.87;47.09
76114;BME280;64845;53.086;5.834;2023-05-28T12:05:22;102379.97;;;20.94;47.39
76114;BME280;64845;53.086;5.834;2023-05-28T12:07:50;102374.53;;;20.94;47.45
76114;BME280;64845;53.086;5.834;2023-05-28T12:10:20;102377.75;;;20.85;47.65
76114;BME280;64845;53.086;5.834;2023-05-28T12:12:51;102383.47;;;20.80;47.76
76114;BME280;64845;53.086;5.834;2023-05-28T12:15:21;102380.84;;;20.79;47.88
76114;BME280;64845;53.086;5.834;2023-05-28T12:17:52;102388.13;;;20.78;47.80
76114;BME280;64845;53.086;5.834;2023-05-28T12:22:43;102384.09;;;20.86;47.89
76114;BME280;64845;53.086;5.834;2023-05-28T12:25:10;102386.41;;;20.92;47.73
76114;BME280;64845;53.086;5.834;2023-05-28T12:27:36;102385.13;;;20.83;47.51
76114;BME280;64845;53.086;5.834;2023-05-28T12:30:02;102379.19;;;20.76;47.31
76114;BME280;64845;53.086;5.834;2023-05-28T12:32:28;102373.69;;;20.78;47.05
76114;BME280;64845;53.086;5.834;2023-05-28T12:34:53;102377.31;;;20.61;46.99
76114;BME280;64845;53.086;5.834;2023-05-28T12:37:24;102367.59;;;20.57;46.96
76114;BME280;64845;53.086;5.834;2023-05-28T12:39:50;102374.88;;;20.56;47.04
76114;BME280;64845;53.086;5.834;2023-05-28T12:42:16;102373.28;;;20.52;47.08
76114;BME280;64845;53.086;5.834;2023-05-28T12:44:42;102378.78;;;20.50;47.04
76114;BME280;64845;53.086;5.834;2023-05-28T12:47:07;102380.47;;;20.53;47.07
76114;BME280;64845;53.086;5.834;2023-05-28T12:49:32;102376.25;;;20.63;47.42
76114;BME280;64845;53.086;5.834;2023-05-28T12:51:58;102378.53;;;20.71;47.29